Gazpromneft East — UBOF4 — position and weather

sailwx.info

Track history (hours):
 
Tides and Currents Weather Stations Pressure Air Temp Water Temp Dewpoint Dewpoint Depression Visibility Wind Speed Wind Dir Waves Ship Positions

Gazpromneft East

Last reported at 2015-May-25 16:33 UTC. Time now 2015-May-25 23:42 UTC.
Position N 59°58' E 029°48'.

Length 79 m; draft 4.8 m.

Type: Tanker. MMSI: 273335320.

Date/timePositionNaut miles runAvg speedWind from/ knotsBaromVisibWave heightAir tempDewpointWater temp
2015-May-25 16:33N 59°58' E 029°48'1010.1
2015-May-25 15:33N 59°57' E 030°08'2 1.5
2015-May-25 14:33N 59°57' E 030°11'0 0.0
2015-May-25 13:31N 59°57' E 030°11'0 0.0
2015-May-25 12:33N 59°57' E 030°11'0 0.0
2015-May-25 11:33N 59°57' E 030°11'0 0.4
2015-May-25 10:33N 59°57' E 030°11'0 0.0
2015-May-25 09:33N 59°57' E 030°11'0 0.0
2015-May-25 08:33N 59°57' E 030°11'0 0.0
2015-May-25 07:33N 59°57' E 030°11'0 0.0
2015-May-25 06:33N 59°57' E 030°11'0 0.3
2015-May-25 05:33N 59°57' E 030°11'9 9.0
2015-May-25 04:33N 59°57' E 029°53'3 3.4
2015-May-25 03:33N 59°56' E 029°46'0 0.0
2015-May-25 02:33N 59°56' E 029°46'0 0.0
2015-May-25 01:33N 59°56' E 029°46'0 0.0
2015-May-25 00:33N 59°56' E 029°46'0 0.0
2015-May-24 23:33N 59°56' E 029°46'0 0.0
2015-May-24 22:33N 59°56' E 029°46'0 0.0
2015-May-24 21:33N 59°56' E 029°46'0 0.0
2015-May-24 20:33N 59°56' E 029°46'0 0.0
2015-May-24 19:33N 59°56' E 029°46'0 0.0
2015-May-24 18:33N 59°56' E 029°46'0 0.0
2015-May-24 17:33N 59°56' E 029°46'0 0.0
2015-May-24 16:33N 59°56' E 029°46'0 0.0
2015-May-24 15:33N 59°56' E 029°46'0 0.0
2015-May-24 14:32N 59°56' E 029°46'0 0.0
2015-May-24 13:33N 59°56' E 029°46'0 0.0
2015-May-24 12:33N 59°56' E 029°46'0 0.0
2015-May-24 11:34N 59°56' E 029°46'0 0.0
2015-May-24 10:33N 59°56' E 029°46'0 0.0
2015-May-24 09:33N 59°56' E 029°46'0 0.0
2015-May-24 08:33N 59°56' E 029°46'0 0.0
2015-May-24 07:32N 59°56' E 029°46'0 0.0
2015-May-24 06:33N 59°56' E 029°46'11 0.3
2015-May-22 16:04N 60°02' E 029°29'611.3
2015-May-22 15:33N 59°60' E 029°39'5 5.4
2015-May-22 14:33N 59°56' E 029°46'0 0.0
2015-May-22 13:33N 59°56' E 029°46'0 0.0
2015-May-22 12:33N 59°56' E 029°46'0 0.0
2015-May-22 11:33N 59°56' E 029°46'0 0.0
2015-May-22 10:33N 59°56' E 029°46'0 0.0
2015-May-22 09:33N 59°56' E 029°46'0 0.0
2015-May-22 08:33N 59°56' E 029°46'0 0.0
2015-May-22 07:33N 59°56' E 029°46'0 0.0
2015-May-22 06:32N 59°56' E 029°46'0 0.0
2015-May-22 05:32N 59°56' E 029°46'0 0.0
2015-May-22 04:19N 59°56' E 029°46'0 0.0
2015-May-22 03:31N 59°56' E 029°46'0 0.0
2015-May-22 02:31N 59°56' E 029°46'0 0.0
2015-May-22 01:33N 59°56' E 029°46'0 0.0
2015-May-22 00:32N 59°56' E 029°46'0 0.0
2015-May-21 23:33N 59°56' E 029°46'0 0.0
2015-May-21 22:33N 59°56' E 029°46'0 0.0
2015-May-21 21:34N 59°56' E 029°46'2 2.0
2015-May-21 20:33N 59°58' E 029°47'1010.4
2015-May-21 19:33N 59°54' E 030°06'3 2.7
2015-May-21 18:34N 59°53' E 030°11'0 0.0
2015-May-21 17:33N 59°53' E 030°11'0 0.0
2015-May-21 16:33N 59°53' E 030°11'1 1.1
2015-May-21 15:33N 59°53' E 030°13'0 0.0
2015-May-21 14:33N 59°53' E 030°13'0 0.0
2015-May-21 13:33N 59°53' E 030°13'0 0.0
2015-May-21 12:33N 59°53' E 030°13'0 0.0
2015-May-21 11:33N 59°53' E 030°13'0 0.0
2015-May-21 10:33N 59°53' E 030°13'0 0.0
2015-May-21 09:33N 59°53' E 030°13'0 0.0
2015-May-21 08:33N 59°53' E 030°13'0 0.0
2015-May-21 07:33N 59°53' E 030°13'0 0.0
2015-May-21 06:33N 59°53' E 030°13'2 1.6
2015-May-21 05:33N 59°53' E 030°10'10 9.8
2015-May-21 04:33N 59°57' E 029°52'3 3.1
2015-May-21 03:32N 59°56' E 029°46'0 0.0
2015-May-21 02:33N 59°56' E 029°46'0 0.0
2015-May-21 01:33N 59°56' E 029°46'0 0.0
2015-May-21 00:21N 59°56' E 029°46'0 0.0
2015-May-20 23:33N 59°56' E 029°46'0 0.0
2015-May-20 22:33N 59°56' E 029°46'0 0.0
2015-May-20 21:33N 59°56' E 029°46'0 0.0
2015-May-20 20:33N 59°56' E 029°46'0 0.0
2015-May-20 19:33N 59°56' E 029°46'0 0.0
2015-May-20 18:33N 59°56' E 029°46'0 0.0
2015-May-20 17:33N 59°56' E 029°46'0 0.0
2015-May-20 16:31N 59°56' E 029°46'2 1.6
2015-May-20 15:32N 59°57' E 029°47'9 9.0
2015-May-20 14:33N 59°56' E 030°05'3 3.2
2015-May-20 13:34N 59°57' E 030°11'0 0.0
2015-May-20 12:33N 59°57' E 030°11'0 0.0
2015-May-20 11:33N 59°57' E 030°11'0 0.0
2015-May-20 10:34N 59°57' E 030°11'0 0.0
2015-May-20 09:33N 59°57' E 030°11'0 0.0
2015-May-20 08:33N 59°57' E 030°11'0 0.0
2015-May-20 07:33N 59°57' E 030°11'0 0.0
2015-May-20 06:33N 59°57' E 030°11'1 0.6
2015-May-20 05:33N 59°57' E 030°10'10 9.6
2015-May-20 04:33N 59°57' E 029°51'3 0.2
2015-May-19 16:23N 59°56' E 029°46'5 5.7
2015-May-19 15:33N 59°56' E 029°56'8 8.1
2015-May-19 14:33N 59°57' E 030°12'0 0.0
2015-May-19 13:33N 59°57' E 030°12'0 0.0
2015-May-19 12:31N 59°57' E 030°12'0 0.0
2015-May-19 11:33N 59°57' E 030°12'0 0.0
2015-May-19 10:33N 59°57' E 030°12'0 0.0
2015-May-19 09:33N 59°57' E 030°12'0 0.0
2015-May-19 08:33N 59°57' E 030°12'0 0.0
2015-May-19 07:33N 59°57' E 030°12'0 0.0
2015-May-19 06:33N 59°57' E 030°12'0 0.0
2015-May-19 05:32N 59°57' E 030°12'6 5.9
2015-May-19 04:32N 59°55' E 030°00'7 7.3
2015-May-19 03:33N 59°56' E 029°46'0 0.0
2015-May-19 02:33N 59°56' E 029°46'0 0.0
2015-May-19 01:33N 59°56' E 029°46'0 0.0
2015-May-19 00:33N 59°56' E 029°46'0 0.0
2015-May-18 23:33N 59°56' E 029°46'0 0.0
2015-May-18 22:33N 59°56' E 029°46'1 0.7
2015-May-18 21:32N 59°56' E 029°47'8 7.7
2015-May-18 20:33N 59°55' E 030°02'6 6.4
2015-May-18 19:33N 59°53' E 030°14'0 0.0
2015-May-18 18:33N 59°53' E 030°14'0 0.0
2015-May-18 17:33N 59°53' E 030°14'0 0.0
2015-May-18 16:33N 59°53' E 030°14'1 0.6
2015-May-18 15:33N 59°53' E 030°13'0 0.0
2015-May-18 14:33N 59°53' E 030°13'0 0.0
2015-May-18 13:33N 59°53' E 030°13'0 0.0
2015-May-18 12:33N 59°53' E 030°13'0 0.0
2015-May-18 11:33N 59°53' E 030°13'0 0.1
2015-May-18 10:33N 59°53' E 030°14'0 0.0
2015-May-18 09:33N 59°53' E 030°14'0 0.0
2015-May-18 08:33N 59°53' E 030°14'0 0.0
2015-May-18 07:33N 59°53' E 030°14'1 1.2
2015-May-18 06:33N 59°53' E 030°11'0 0.0
2015-May-18 05:33N 59°53' E 030°11'0 0.0
2015-May-18 04:33N 59°53' E 030°11'0 0.0
2015-May-18 03:33N 59°53' E 030°11'0 0.0
2015-May-18 02:33N 59°53' E 030°11'0 0.0
2015-May-18 01:33N 59°53' E 030°11'0 0.0
2015-May-18 00:33N 59°53' E 030°11'0 0.0
2015-May-17 23:33N 59°53' E 030°11'0 0.0
2015-May-17 22:33N 59°53' E 030°11'0 0.0
2015-May-17 21:33N 59°53' E 030°11'0 0.0
2015-May-17 20:33N 59°53' E 030°11'0 0.0
2015-May-17 19:33N 59°53' E 030°11'1 1.1
2015-May-17 18:33N 59°53' E 030°13'0 0.0
2015-May-17 17:33N 59°53' E 030°13'0 0.0
2015-May-17 16:33N 59°53' E 030°13'0 0.0
2015-May-17 15:33N 59°53' E 030°13'0 0.0
2015-May-17 14:33N 59°53' E 030°13'0 0.0
2015-May-17 13:33N 59°53' E 030°13'0 0.0
2015-May-17 12:33N 59°53' E 030°13'0 0.0
2015-May-17 11:33N 59°53' E 030°13'0 0.0
2015-May-17 10:33N 59°53' E 030°13'0 0.0
2015-May-17 09:33N 59°53' E 030°13'0 0.0
2015-May-17 08:33N 59°53' E 030°13'0 0.0
2015-May-17 07:33N 59°53' E 030°13'1 0.9
2015-May-17 06:33N 59°53' E 030°12'10 9.8
2015-May-17 05:33N 59°57' E 029°54'4 3.7
2015-May-17 04:33N 59°56' E 029°46'0 0.0
2015-May-17 03:33N 59°56' E 029°46'0 0.0
2015-May-17 01:26N 59°56' E 029°46'0 0.0
2015-May-17 00:33N 59°56' E 029°46'0 0.0
2015-May-16 23:31N 59°56' E 029°46'0 0.0
2015-May-16 22:26N 59°56' E 029°46'0 0.0
2015-May-16 21:30N 59°56' E 029°46'0 0.0
2015-May-16 20:31N 59°56' E 029°46'0 0.0
2015-May-16 19:33N 59°56' E 029°46'0 0.0
2015-May-16 18:33N 59°56' E 029°46'0 0.1
2015-May-16 12:33N 59°56' E 029°47'8 7.9
2015-May-16 11:33N 59°56' E 030°03'4 4.5
2015-May-16 10:33N 59°57' E 030°11'0 0.0
2015-May-16 09:33N 59°57' E 030°11'0 0.0
2015-May-16 08:33N 59°57' E 030°11'0 0.0
2015-May-16 07:33N 59°57' E 030°11'0 0.0
2015-May-16 06:33N 59°57' E 030°11'2 1.7
2015-May-16 05:33N 59°57' E 030°08'1010.1
2015-May-16 04:33N 59°58' E 029°48'2 0.2
2015-May-15 20:25N 59°56' E 029°47'7 7.9
2015-May-15 19:33N 59°55' E 030°01'6 6.4
2015-May-15 18:34N 59°52' E 030°12'0 0.0
2015-May-15 17:33N 59°52' E 030°12'0 0.0
2015-May-15 16:34N 59°52' E 030°12'  
Track history (hours):
 
Tides and Currents Weather Stations Pressure Air Temp Water Temp Dewpoint Dewpoint Depression Visibility Wind Speed Wind Dir Waves Ship Positions

Gazpromneft East

Last reported at 2015-May-25 16:33 UTC. Time now 2015-May-25 23:42 UTC.
Position N 59°58' E 029°48'.

Length 79 m; draft 4.8 m.

Type: Tanker. MMSI: 273335320.

Date/timePositionNaut miles runAvg speedWind from/ knotsBaromVisibWave heightAir tempDewpointWater temp
2015-May-25 16:33N 59°58' E 029°48'1010.1
2015-May-25 15:33N 59°57' E 030°08'2 1.5
2015-May-25 14:33N 59°57' E 030°11'0 0.0
2015-May-25 13:31N 59°57' E 030°11'0 0.0
2015-May-25 12:33N 59°57' E 030°11'0 0.0
2015-May-25 11:33N 59°57' E 030°11'0 0.4
2015-May-25 10:33N 59°57' E 030°11'0 0.0
2015-May-25 09:33N 59°57' E 030°11'0 0.0
2015-May-25 08:33N 59°57' E 030°11'0 0.0
2015-May-25 07:33N 59°57' E 030°11'0 0.0
2015-May-25 06:33N 59°57' E 030°11'0 0.3
2015-May-25 05:33N 59°57' E 030°11'9 9.0
2015-May-25 04:33N 59°57' E 029°53'3 3.4
2015-May-25 03:33N 59°56' E 029°46'0 0.0
2015-May-25 02:33N 59°56' E 029°46'0 0.0
2015-May-25 01:33N 59°56' E 029°46'0 0.0
2015-May-25 00:33N 59°56' E 029°46'0 0.0
2015-May-24 23:33N 59°56' E 029°46'0 0.0
2015-May-24 22:33N 59°56' E 029°46'0 0.0
2015-May-24 21:33N 59°56' E 029°46'0 0.0
2015-May-24 20:33N 59°56' E 029°46'0 0.0
2015-May-24 19:33N 59°56' E 029°46'0 0.0
2015-May-24 18:33N 59°56' E 029°46'0 0.0
2015-May-24 17:33N 59°56' E 029°46'0 0.0
2015-May-24 16:33N 59°56' E 029°46'0 0.0
2015-May-24 15:33N 59°56' E 029°46'0 0.0
2015-May-24 14:32N 59°56' E 029°46'0 0.0
2015-May-24 13:33N 59°56' E 029°46'0 0.0
2015-May-24 12:33N 59°56' E 029°46'0 0.0
2015-May-24 11:34N 59°56' E 029°46'0 0.0
2015-May-24 10:33N 59°56' E 029°46'0 0.0
2015-May-24 09:33N 59°56' E 029°46'0 0.0
2015-May-24 08:33N 59°56' E 029°46'0 0.0
2015-May-24 07:32N 59°56' E 029°46'0 0.0
2015-May-24 06:33N 59°56' E 029°46'11 0.3
2015-May-22 16:04N 60°02' E 029°29'611.3
2015-May-22 15:33N 59°60' E 029°39'5 5.4
2015-May-22 14:33N 59°56' E 029°46'0 0.0
2015-May-22 13:33N 59°56' E 029°46'0 0.0
2015-May-22 12:33N 59°56' E 029°46'0 0.0
2015-May-22 11:33N 59°56' E 029°46'0 0.0
2015-May-22 10:33N 59°56' E 029°46'0 0.0
2015-May-22 09:33N 59°56' E 029°46'0 0.0
2015-May-22 08:33N 59°56' E 029°46'0 0.0
2015-May-22 07:33N 59°56' E 029°46'0 0.0
2015-May-22 06:32N 59°56' E 029°46'0 0.0
2015-May-22 05:32N 59°56' E 029°46'0 0.0
2015-May-22 04:19N 59°56' E 029°46'0 0.0
2015-May-22 03:31N 59°56' E 029°46'0 0.0
2015-May-22 02:31N 59°56' E 029°46'0 0.0
2015-May-22 01:33N 59°56' E 029°46'0 0.0
2015-May-22 00:32N 59°56' E 029°46'0 0.0
2015-May-21 23:33N 59°56' E 029°46'0 0.0
2015-May-21 22:33N 59°56' E 029°46'0 0.0
2015-May-21 21:34N 59°56' E 029°46'2 2.0
2015-May-21 20:33N 59°58' E 029°47'1010.4
2015-May-21 19:33N 59°54' E 030°06'3 2.7
2015-May-21 18:34N 59°53' E 030°11'0 0.0
2015-May-21 17:33N 59°53' E 030°11'0 0.0
2015-May-21 16:33N 59°53' E 030°11'1 1.1
2015-May-21 15:33N 59°53' E 030°13'0 0.0
2015-May-21 14:33N 59°53' E 030°13'0 0.0
2015-May-21 13:33N 59°53' E 030°13'0 0.0
2015-May-21 12:33N 59°53' E 030°13'0 0.0
2015-May-21 11:33N 59°53' E 030°13'0 0.0
2015-May-21 10:33N 59°53' E 030°13'0 0.0
2015-May-21 09:33N 59°53' E 030°13'0 0.0
2015-May-21 08:33N 59°53' E 030°13'0 0.0
2015-May-21 07:33N 59°53' E 030°13'0 0.0
2015-May-21 06:33N 59°53' E 030°13'2 1.6
2015-May-21 05:33N 59°53' E 030°10'10 9.8
2015-May-21 04:33N 59°57' E 029°52'3 3.1
2015-May-21 03:32N 59°56' E 029°46'0 0.0
2015-May-21 02:33N 59°56' E 029°46'0 0.0
2015-May-21 01:33N 59°56' E 029°46'0 0.0
2015-May-21 00:21N 59°56' E 029°46'0 0.0
2015-May-20 23:33N 59°56' E 029°46'0 0.0
2015-May-20 22:33N 59°56' E 029°46'0 0.0
2015-May-20 21:33N 59°56' E 029°46'0 0.0
2015-May-20 20:33N 59°56' E 029°46'0 0.0
2015-May-20 19:33N 59°56' E 029°46'0 0.0
2015-May-20 18:33N 59°56' E 029°46'0 0.0
2015-May-20 17:33N 59°56' E 029°46'0 0.0
2015-May-20 16:31N 59°56' E 029°46'2 1.6
2015-May-20 15:32N 59°57' E 029°47'9 9.0
2015-May-20 14:33N 59°56' E 030°05'3 3.2
2015-May-20 13:34N 59°57' E 030°11'0 0.0
2015-May-20 12:33N 59°57' E 030°11'0 0.0
2015-May-20 11:33N 59°57' E 030°11'0 0.0
2015-May-20 10:34N 59°57' E 030°11'0 0.0
2015-May-20 09:33N 59°57' E 030°11'0 0.0
2015-May-20 08:33N 59°57' E 030°11'0 0.0
2015-May-20 07:33N 59°57' E 030°11'0 0.0
2015-May-20 06:33N 59°57' E 030°11'1 0.6
2015-May-20 05:33N 59°57' E 030°10'10 9.6
2015-May-20 04:33N 59°57' E 029°51'3 0.2
2015-May-19 16:23N 59°56' E 029°46'5 5.7
2015-May-19 15:33N 59°56' E 029°56'8 8.1
2015-May-19 14:33N 59°57' E 030°12'0 0.0
2015-May-19 13:33N 59°57' E 030°12'0 0.0
2015-May-19 12:31N 59°57' E 030°12'0 0.0
2015-May-19 11:33N 59°57' E 030°12'0 0.0
2015-May-19 10:33N 59°57' E 030°12'0 0.0
2015-May-19 09:33N 59°57' E 030°12'0 0.0
2015-May-19 08:33N 59°57' E 030°12'0 0.0
2015-May-19 07:33N 59°57' E 030°12'0 0.0
2015-May-19 06:33N 59°57' E 030°12'0 0.0
2015-May-19 05:32N 59°57' E 030°12'6 5.9
2015-May-19 04:32N 59°55' E 030°00'7 7.3
2015-May-19 03:33N 59°56' E 029°46'0 0.0
2015-May-19 02:33N 59°56' E 029°46'0 0.0
2015-May-19 01:33N 59°56' E 029°46'0 0.0
2015-May-19 00:33N 59°56' E 029°46'0 0.0
2015-May-18 23:33N 59°56' E 029°46'0 0.0
2015-May-18 22:33N 59°56' E 029°46'1 0.7
2015-May-18 21:32N 59°56' E 029°47'8 7.7
2015-May-18 20:33N 59°55' E 030°02'6 6.4
2015-May-18 19:33N 59°53' E 030°14'0 0.0
2015-May-18 18:33N 59°53' E 030°14'0 0.0
2015-May-18 17:33N 59°53' E 030°14'0 0.0
2015-May-18 16:33N 59°53' E 030°14'1 0.6
2015-May-18 15:33N 59°53' E 030°13'0 0.0
2015-May-18 14:33N 59°53' E 030°13'0 0.0
2015-May-18 13:33N 59°53' E 030°13'0 0.0
2015-May-18 12:33N 59°53' E 030°13'0 0.0
2015-May-18 11:33N 59°53' E 030°13'0 0.1
2015-May-18 10:33N 59°53' E 030°14'0 0.0
2015-May-18 09:33N 59°53' E 030°14'0 0.0
2015-May-18 08:33N 59°53' E 030°14'0 0.0
2015-May-18 07:33N 59°53' E 030°14'1 1.2
2015-May-18 06:33N 59°53' E 030°11'0 0.0
2015-May-18 05:33N 59°53' E 030°11'0 0.0
2015-May-18 04:33N 59°53' E 030°11'0 0.0
2015-May-18 03:33N 59°53' E 030°11'0 0.0
2015-May-18 02:33N 59°53' E 030°11'0 0.0
2015-May-18 01:33N 59°53' E 030°11'0 0.0
2015-May-18 00:33N 59°53' E 030°11'0 0.0
2015-May-17 23:33N 59°53' E 030°11'0 0.0
2015-May-17 22:33N 59°53' E 030°11'0 0.0
2015-May-17 21:33N 59°53' E 030°11'0 0.0
2015-May-17 20:33N 59°53' E 030°11'0 0.0
2015-May-17 19:33N 59°53' E 030°11'1 1.1
2015-May-17 18:33N 59°53' E 030°13'0 0.0
2015-May-17 17:33N 59°53' E 030°13'0 0.0
2015-May-17 16:33N 59°53' E 030°13'0 0.0
2015-May-17 15:33N 59°53' E 030°13'0 0.0
2015-May-17 14:33N 59°53' E 030°13'0 0.0
2015-May-17 13:33N 59°53' E 030°13'0 0.0
2015-May-17 12:33N 59°53' E 030°13'0 0.0
2015-May-17 11:33N 59°53' E 030°13'0 0.0
2015-May-17 10:33N 59°53' E 030°13'0 0.0
2015-May-17 09:33N 59°53' E 030°13'0 0.0
2015-May-17 08:33N 59°53' E 030°13'0 0.0
2015-May-17 07:33N 59°53' E 030°13'1 0.9
2015-May-17 06:33N 59°53' E 030°12'10 9.8
2015-May-17 05:33N 59°57' E 029°54'4 3.7
2015-May-17 04:33N 59°56' E 029°46'0 0.0
2015-May-17 03:33N 59°56' E 029°46'0 0.0
2015-May-17 01:26N 59°56' E 029°46'0 0.0
2015-May-17 00:33N 59°56' E 029°46'0 0.0
2015-May-16 23:31N 59°56' E 029°46'0 0.0
2015-May-16 22:26N 59°56' E 029°46'0 0.0
2015-May-16 21:30N 59°56' E 029°46'0 0.0
2015-May-16 20:31N 59°56' E 029°46'0 0.0
2015-May-16 19:33N 59°56' E 029°46'0 0.0
2015-May-16 18:33N 59°56' E 029°46'0 0.1
2015-May-16 12:33N 59°56' E 029°47'8 7.9
2015-May-16 11:33N 59°56' E 030°03'4 4.5
2015-May-16 10:33N 59°57' E 030°11'0 0.0
2015-May-16 09:33N 59°57' E 030°11'0 0.0
2015-May-16 08:33N 59°57' E 030°11'0 0.0
2015-May-16 07:33N 59°57' E 030°11'0 0.0
2015-May-16 06:33N 59°57' E 030°11'2 1.7
2015-May-16 05:33N 59°57' E 030°08'1010.1
2015-May-16 04:33N 59°58' E 029°48'2 0.2
2015-May-15 20:25N 59°56' E 029°47'7 7.9
2015-May-15 19:33N 59°55' E 030°01'6 6.4
2015-May-15 18:34N 59°52' E 030°12'0 0.0
2015-May-15 17:33N 59°52' E 030°12'0 0.0
2015-May-15 16:34N 59°52' E 030°12'  

Dump ship's entire track history